createdAt,value
2019-04-27T00:01:40.623Z,12.07
2019-04-27T00:04:16.271Z,12.08
2019-04-27T00:06:46.597Z,12.07
2019-04-27T00:09:18.997Z,12.03
2019-04-27T00:11:53.117Z,11.98
2019-04-27T00:14:27.553Z,11.94
2019-04-27T00:16:59.800Z,11.89
2019-04-27T00:19:35.251Z,11.82
2019-04-27T00:22:06.013Z,11.77
2019-04-27T00:24:40.402Z,11.74
2019-04-27T00:27:13.449Z,11.70
2019-04-27T00:29:46.024Z,11.66
2019-04-27T00:32:18.256Z,11.63
2019-04-27T00:34:50.685Z,11.60
2019-04-27T00:37:23.726Z,11.58
2019-04-27T00:39:56.358Z,11.52
2019-04-27T00:42:28.792Z,11.48
2019-04-27T00:45:03.308Z,11.44
2019-04-27T00:47:36.231Z,11.43
2019-04-27T00:50:08.717Z,11.49
2019-04-27T00:52:42.646Z,11.56
2019-04-27T00:55:15.247Z,11.61
2019-04-27T00:57:47.504Z,11.60
2019-04-27T01:00:19.739Z,11.60
2019-04-27T01:02:53.649Z,11.53
2019-04-27T01:05:25.951Z,11.51
2019-04-27T01:07:58.184Z,11.54
2019-04-27T01:10:30.446Z,11.51
2019-04-27T01:13:03.283Z,11.51
2019-04-27T01:15:36.763Z,11.48
2019-04-27T01:18:14.968Z,11.44
2019-04-27T01:20:45.286Z,11.39
2019-04-27T01:23:19.231Z,11.36
2019-04-27T01:25:51.546Z,11.34
2019-04-27T01:28:23.974Z,11.33
2019-04-27T01:30:56.173Z,11.34
2019-04-27T01:33:30.280Z,11.41
2019-04-27T01:36:03.666Z,11.50
2019-04-27T01:38:35.934Z,11.63
2019-04-27T01:41:08.958Z,11.71
2019-04-27T01:43:42.391Z,11.76
2019-04-27T01:46:14.625Z,11.80
2019-04-27T01:48:46.891Z,11.84
2019-04-27T01:51:21.043Z,11.90
2019-04-27T01:53:53.099Z,11.91
2019-04-27T01:56:25.170Z,11.94
2019-04-27T01:58:57.474Z,11.96
2019-04-27T02:01:29.724Z,11.99
2019-04-27T02:04:01.942Z,12.01
2019-04-27T02:06:36.530Z,12.02
2019-04-27T02:09:09.807Z,12.04
2019-04-27T02:11:43.823Z,12.04
2019-04-27T02:14:16.095Z,12.08
2019-04-27T02:16:49.261Z,12.10
2019-04-27T02:19:22.730Z,12.12
2019-04-27T02:21:54.978Z,12.12
2019-04-27T02:24:28.814Z,12.12
2019-04-27T02:27:01.248Z,12.11
2019-04-27T02:29:33.448Z,12.13
2019-04-27T02:32:05.687Z,12.12
2019-04-27T02:34:39.886Z,12.12
2019-04-27T02:37:12.016Z,12.14
2019-04-27T02:39:44.295Z,12.16
2019-04-27T02:42:16.529Z,12.14
2019-04-27T02:44:49.549Z,12.16
2019-04-27T02:47:21.912Z,12.17
2019-04-27T02:49:54.132Z,12.19
2019-04-27T02:52:26.365Z,12.20
2019-04-27T02:54:59.328Z,12.20
2019-04-27T02:57:32.230Z,12.18
2019-04-27T03:00:04.489Z,12.17
2019-04-27T03:02:39.497Z,12.14
2019-04-27T03:05:13.126Z,12.13
2019-04-27T03:07:45.563Z,12.12
2019-04-27T03:10:19.848Z,12.13
2019-04-27T03:12:51.803Z,12.09
2019-04-27T03:15:24.021Z,12.04
2019-04-27T03:17:56.227Z,11.97
2019-04-27T03:20:30.098Z,11.88
2019-04-27T03:23:02.607Z,11.84
2019-04-27T03:25:35.059Z,11.83
2019-04-27T03:28:07.259Z,11.82
2019-04-27T03:30:42.365Z,11.83
2019-04-27T03:33:13.523Z,11.80
2019-04-27T03:35:45.768Z,11.79
2019-04-27T03:38:19.703Z,11.76
2019-04-27T03:40:53.031Z,11.71
2019-04-27T03:43:25.650Z,11.69
2019-04-27T03:46:00.351Z,11.71
2019-04-27T03:48:31.966Z,11.70
2019-04-27T03:51:04.214Z,11.71
2019-04-27T03:53:36.457Z,11.69
2019-04-27T03:56:10.158Z,11.68
2019-04-27T03:58:42.581Z,11.68
2019-04-27T04:01:14.802Z,11.65
2019-04-27T04:03:49.692Z,11.66
2019-04-27T04:06:21.179Z,11.65
2019-04-27T04:08:55.245Z,11.65
2019-04-27T04:11:30.292Z,11.65
2019-04-27T04:14:01.542Z,11.61
2019-04-27T04:16:33.768Z,11.60
2019-04-27T04:19:06.015Z,11.61
2019-04-27T04:21:40.047Z,11.61
2019-04-27T04:24:12.595Z,11.62
2019-04-27T04:26:44.836Z,11.59
2019-04-27T04:29:17.112Z,11.58
2019-04-27T04:31:50.346Z,11.59
2019-04-27T04:34:22.961Z,11.61
2019-04-27T04:36:55.182Z,11.56
2019-04-27T04:39:29.603Z,11.43
2019-04-27T04:42:01.460Z,11.39
2019-04-27T04:44:33.709Z,11.39
2019-04-27T04:47:05.941Z,11.34
2019-04-27T04:49:39.746Z,11.30
2019-04-27T04:52:11.947Z,11.31
2019-04-27T04:54:44.189Z,11.31
2019-04-27T04:57:16.412Z,11.32
2019-04-27T04:59:51.726Z,11.22
2019-04-27T05:02:23.967Z,11.14
2019-04-27T05:04:56.207Z,11.03
2019-04-27T05:07:29.688Z,10.92
2019-04-27T05:10:02.042Z,10.85
2019-04-27T05:12:34.262Z,10.81
2019-04-27T05:15:06.631Z,10.75
2019-04-27T05:17:39.894Z,10.73
2019-04-27T05:20:22.303Z,10.73
2019-04-27T05:22:46.225Z,10.76
2019-04-27T05:25:18.695Z,10.78
2019-04-27T05:27:51.304Z,10.80
2019-04-27T05:30:23.600Z,10.82
2019-04-27T05:32:55.837Z,10.84
2019-04-27T05:35:29.726Z,10.83
2019-04-27T05:38:07.460Z,10.81
2019-04-27T05:40:36.262Z,10.93
2019-04-27T05:43:09.106Z,11.03
2019-04-27T05:45:41.492Z,11.03
2019-04-27T05:48:13.764Z,11.00
2019-04-27T05:50:51.534Z,10.93
2019-04-27T05:53:21.062Z,10.88
2019-04-27T05:55:53.628Z,10.91
2019-04-27T05:58:26.298Z,10.90
2019-04-27T06:00:59.510Z,10.86
2019-04-27T06:03:32.095Z,10.84
2019-04-27T06:06:04.363Z,10.86
2019-04-27T06:08:36.583Z,10.88
2019-04-27T06:11:09.422Z,10.88
2019-04-27T06:13:41.935Z,10.85
2019-04-27T06:16:14.219Z,10.83
2019-04-27T06:18:46.411Z,10.85
2019-04-27T06:21:19.568Z,10.85
2019-04-27T06:23:51.969Z,10.71
2019-04-27T06:26:24.221Z,10.60
2019-04-27T06:28:56.458Z,10.51
2019-04-27T06:31:29.726Z,10.46
2019-04-27T06:34:02.078Z,10.33
2019-04-27T06:36:34.521Z,10.22
2019-04-27T06:39:06.785Z,10.15
2019-04-27T06:41:39.983Z,10.15
2019-04-27T06:44:15.635Z,10.15
2019-04-27T06:46:48.985Z,10.21
2019-04-27T06:49:21.431Z,10.27
2019-04-27T06:51:53.723Z,10.41
2019-04-27T06:54:25.969Z,10.63
2019-04-27T06:56:59.270Z,10.81
2019-04-27T06:59:31.773Z,10.91
2019-04-27T07:02:03.982Z,10.97
2019-04-27T07:04:36.270Z,10.93
2019-04-27T07:07:09.734Z,10.85
2019-04-27T07:09:42.108Z,10.85
2019-04-27T07:12:14.303Z,10.77
2019-04-27T07:14:54.342Z,10.75
2019-04-27T07:17:20.594Z,10.79
2019-04-27T07:19:52.880Z,10.82
2019-04-27T07:22:26.219Z,10.91
2019-04-27T07:24:59.082Z,10.97
2019-04-27T07:27:31.397Z,11.06
2019-04-27T07:30:03.627Z,11.14
2019-04-27T07:32:36.095Z,11.20
2019-04-27T07:35:10.330Z,11.23
2019-04-27T07:37:42.580Z,11.29
2019-04-27T07:40:14.958Z,11.41
2019-04-27T07:42:47.272Z,11.56
2019-04-27T07:45:19.633Z,11.60
2019-04-27T07:47:51.836Z,11.65
2019-04-27T07:50:24.175Z,11.79
2019-04-27T07:52:56.470Z,12.03
2019-04-27T07:55:28.928Z,12.23
2019-04-27T07:58:01.414Z,12.38
2019-04-27T08:00:34.712Z,12.52
2019-04-27T08:03:07.085Z,12.65
2019-04-27T08:05:39.782Z,12.83
2019-04-27T08:08:12.186Z,12.94
2019-04-27T08:10:44.490Z,13.01
2019-04-27T08:13:16.758Z,12.87
2019-04-27T08:15:49.619Z,12.76
2019-04-27T08:18:22.112Z,12.65
2019-04-27T08:20:57.532Z,12.65
2019-04-27T08:23:31.205Z,12.48
2019-04-27T08:26:03.445Z,12.53
2019-04-27T08:28:35.700Z,12.67
2019-04-27T08:31:08.905Z,12.82
2019-04-27T08:33:41.274Z,13.07
2019-04-27T08:36:13.417Z,13.25
2019-04-27T08:38:45.730Z,13.22
2019-04-27T08:41:19.666Z,13.23
2019-04-27T08:43:52.001Z,13.54
2019-04-27T08:46:24.213Z,13.89
2019-04-27T08:48:56.591Z,14.06
2019-04-27T08:51:29.164Z,14.03
2019-04-27T08:54:01.390Z,14.01
2019-04-27T08:56:33.979Z,14.08
2019-04-27T08:59:06.243Z,14.17
2019-04-27T09:01:39.739Z,14.34
2019-04-27T09:04:12.132Z,14.47
2019-04-27T09:06:44.387Z,14.60
2019-04-27T09:09:16.596Z,14.76
2019-04-27T09:11:49.370Z,14.73
2019-04-27T09:14:22.942Z,14.53
2019-04-27T09:17:00.282Z,14.40
2019-04-27T09:19:29.687Z,14.25
2019-04-27T09:22:12.699Z,14.27
2019-04-27T09:24:36.031Z,14.24
2019-04-27T09:27:09.642Z,14.11
2019-04-27T09:29:42.107Z,14.17
2019-04-27T09:32:14.444Z,14.21
2019-04-27T09:34:46.874Z,14.27
2019-04-27T09:37:19.093Z,14.42
2019-04-27T09:39:51.467Z,14.45
2019-04-27T09:42:23.892Z,14.46
2019-04-27T09:44:56.205Z,14.55
2019-04-27T09:47:30.753Z,14.57
2019-04-27T09:50:03.173Z,14.77
2019-04-27T09:52:36.053Z,14.81
2019-04-27T09:55:08.610Z,15.10
2019-04-27T09:57:41.003Z,15.51
2019-04-27T10:00:13.141Z,15.62
2019-04-27T10:02:46.605Z,15.72
2019-04-27T10:05:19.013Z,15.82
2019-04-27T10:07:51.312Z,15.78
2019-04-27T10:10:23.564Z,15.62
2019-04-27T10:12:56.794Z,15.61
2019-04-27T10:15:29.352Z,15.82
2019-04-27T10:18:01.707Z,16.17
2019-04-27T10:20:38.442Z,16.21
2019-04-27T10:23:08.183Z,15.99
2019-04-27T10:25:40.380Z,15.77
2019-04-27T10:28:12.621Z,15.49
2019-04-27T10:30:45.791Z,15.31
2019-04-27T10:33:18.102Z,15.35
2019-04-27T10:35:50.580Z,15.68
2019-04-27T10:38:22.912Z,15.99
2019-04-27T10:40:55.145Z,15.70
2019-04-27T10:43:29.527Z,15.49
2019-04-27T10:46:01.901Z,15.05
2019-04-27T10:48:34.195Z,14.82
2019-04-27T10:51:07.394Z,14.74
2019-04-27T10:53:39.765Z,14.77
2019-04-27T10:56:12.094Z,14.86
2019-04-27T10:58:45.691Z,15.40
2019-04-27T11:01:18.187Z,15.61
2019-04-27T11:03:50.390Z,15.59
2019-04-27T11:06:23.697Z,15.48
2019-04-27T11:08:56.187Z,15.50
2019-04-27T11:11:28.581Z,15.47
2019-04-27T11:14:01.260Z,15.56
2019-04-27T11:16:35.694Z,15.92
2019-04-27T11:19:08.597Z,16.09
2019-04-27T11:21:40.849Z,16.21
2019-04-27T11:24:13.055Z,15.75
2019-04-27T11:26:46.538Z,15.13
2019-04-27T11:29:19.020Z,13.73
2019-04-27T11:31:51.249Z,12.62
2019-04-27T11:34:23.574Z,12.25
2019-04-27T11:36:56.007Z,12.58
2019-04-27T11:39:28.603Z,13.04
2019-04-27T11:42:00.902Z,13.45
2019-04-27T11:44:33.120Z,13.58
2019-04-27T11:47:06.036Z,13.44
2019-04-27T11:49:38.639Z,13.22
2019-04-27T11:52:10.901Z,12.98
2019-04-27T11:54:43.227Z,12.85
2019-04-27T11:57:15.520Z,12.97
2019-04-27T11:59:47.887Z,13.27
2019-04-27T12:02:20.278Z,13.58
2019-04-27T12:04:52.522Z,13.57
2019-04-27T12:07:24.843Z,13.54
2019-04-27T12:09:57.074Z,13.63
2019-04-27T12:12:29.164Z,13.98
2019-04-27T12:15:01.381Z,14.21
2019-04-27T12:17:33.788Z,14.30
2019-04-27T12:20:06.563Z,14.60
2019-04-27T12:22:38.769Z,14.93
2019-04-27T12:25:11.000Z,15.22
2019-04-27T12:27:43.305Z,14.93
2019-04-27T12:30:16.240Z,14.32
2019-04-27T12:32:48.707Z,14.32
2019-04-27T12:35:20.924Z,14.63
2019-04-27T12:37:53.185Z,17.60
2019-04-27T12:40:26.847Z,19.63
2019-04-27T12:42:59.246Z,18.87
2019-04-27T12:45:33.854Z,17.14
2019-04-27T12:48:06.092Z,15.43
2019-04-27T12:50:38.521Z,14.67
2019-04-27T12:53:10.782Z,14.47
2019-04-27T12:55:43.057Z,14.44
2019-04-27T12:58:16.441Z,17.56
2019-04-27T13:00:48.967Z,21.31
2019-04-27T13:03:21.223Z,22.51
2019-04-27T13:05:53.787Z,24.83
2019-04-27T13:08:26.180Z,23.63
2019-04-27T13:10:58.734Z,21.48
2019-04-27T13:13:31.713Z,19.49
2019-04-27T13:16:03.996Z,18.07
2019-04-27T13:18:36.204Z,16.78
2019-04-27T13:21:08.380Z,15.86
2019-04-27T13:23:40.703Z,15.19
2019-04-27T13:26:12.944Z,14.69
2019-04-27T13:28:46.592Z,14.23
2019-04-27T13:31:19.154Z,13.91
2019-04-27T13:33:51.432Z,13.89
2019-04-27T13:36:26.574Z,13.97
2019-04-27T13:38:59.064Z,13.78
2019-04-27T13:41:32.915Z,13.39
2019-04-27T13:44:06.569Z,13.35
2019-04-27T13:46:40.355Z,13.27
2019-04-27T13:49:12.619Z,13.16
2019-04-27T13:51:45.069Z,13.31
2019-04-27T13:54:25.350Z,13.43
2019-04-27T13:56:51.426Z,13.40
2019-04-27T13:59:23.542Z,13.30
2019-04-27T14:01:55.785Z,13.22
2019-04-27T14:04:28.080Z,13.23
2019-04-27T14:07:00.280Z,13.32
2019-04-27T14:09:32.832Z,13.26
2019-04-27T14:12:05.085Z,13.20
2019-04-27T14:14:38.978Z,13.29
2019-04-27T14:17:11.286Z,13.38
2019-04-27T14:19:43.753Z,13.26
2019-04-27T14:22:18.118Z,13.16
2019-04-27T14:24:50.451Z,13.11
2019-04-27T14:27:22.639Z,12.94
2019-04-27T14:29:57.163Z,12.88
2019-04-27T14:32:28.916Z,12.99
2019-04-27T14:35:01.264Z,12.95
2019-04-27T14:37:33.512Z,12.81
2019-04-27T14:40:08.469Z,12.71
2019-04-27T14:42:41.260Z,12.60
2019-04-27T14:45:13.392Z,12.61
2019-04-27T14:47:45.906Z,12.71
2019-04-27T14:50:19.191Z,12.75
2019-04-27T14:52:51.459Z,12.66
2019-04-27T14:55:24.096Z,12.47
2019-04-27T14:57:56.358Z,12.45
2019-04-27T15:00:30.504Z,12.49
2019-04-27T15:03:02.732Z,12.52
2019-04-27T15:05:34.926Z,12.50
2019-04-27T15:08:09.695Z,12.53
2019-04-27T15:10:41.270Z,12.52
2019-04-27T15:13:13.566Z,12.49
2019-04-27T15:15:45.776Z,12.38
2019-04-27T15:18:19.766Z,12.33
2019-04-27T15:20:52.185Z,12.31
2019-04-27T15:23:26.638Z,12.16
2019-04-27T15:26:00.022Z,11.79
2019-04-27T15:28:32.477Z,11.20
2019-04-27T15:31:04.918Z,10.87
2019-04-27T15:33:38.801Z,10.74
2019-04-27T15:36:14.579Z,10.84
2019-04-27T15:38:47.773Z,11.63
2019-04-27T15:41:19.562Z,12.34
2019-04-27T15:43:52.053Z,12.27
2019-04-27T15:46:27.872Z,12.14
2019-04-27T15:48:58.957Z,12.25
2019-04-27T15:51:31.235Z,12.34
2019-04-27T15:54:03.707Z,12.20
2019-04-27T15:56:36.976Z,12.21
2019-04-27T15:59:09.429Z,12.20
2019-04-27T16:01:41.701Z,12.03
2019-04-27T16:04:13.999Z,11.98
2019-04-27T16:06:48.727Z,11.86
2019-04-27T16:09:25.367Z,11.62
2019-04-27T16:12:03.754Z,11.32
2019-04-27T16:14:29.199Z,10.81
2019-04-27T16:17:03.121Z,10.68
2019-04-27T16:19:35.603Z,10.48
2019-04-27T16:22:08.112Z,10.34
2019-04-27T16:24:40.348Z,10.23
2019-04-27T16:27:12.727Z,10.12
2019-04-27T16:29:44.963Z,10.10
2019-04-27T16:32:17.302Z,10.08
2019-04-27T16:34:49.616Z,10.06
2019-04-27T16:37:22.537Z,9.92
2019-04-27T16:39:54.924Z,9.78
2019-04-27T16:42:28.714Z,9.62
2019-04-27T16:45:02.478Z,9.49
2019-04-27T16:47:35.172Z,9.51
2019-04-27T16:50:08.340Z,9.65
2019-04-27T16:52:40.647Z,9.77
2019-04-27T16:55:17.485Z,9.92
2019-04-27T16:57:49.074Z,10.16
2019-04-27T17:00:22.713Z,10.53
2019-04-27T17:02:59.863Z,10.83
2019-04-27T17:05:34.473Z,11.03
2019-04-27T17:08:03.303Z,11.03
2019-04-27T17:10:35.631Z,10.83
2019-04-27T17:13:13.315Z,10.68
2019-04-27T17:15:46.016Z,10.59
2019-04-27T17:18:19.985Z,10.50
2019-04-27T17:20:52.727Z,10.42
2019-04-27T17:23:26.126Z,10.41
2019-04-27T17:26:04.475Z,10.25
2019-04-27T17:28:33.445Z,9.95
2019-04-27T17:31:06.305Z,9.78
2019-04-27T17:33:38.526Z,9.74
2019-04-27T17:36:12.126Z,9.78
2019-04-27T17:38:47.267Z,9.82
2019-04-27T17:41:18.694Z,9.82
2019-04-27T17:43:50.974Z,9.82
2019-04-27T17:46:23.235Z,9.85
2019-04-27T17:48:55.469Z,9.94
2019-04-27T17:51:28.572Z,10.12
2019-04-27T17:54:08.083Z,10.23
2019-04-27T17:56:48.158Z,10.40
2019-04-27T17:59:17.383Z,10.52
2019-04-27T18:01:49.475Z,10.67
2019-04-27T18:04:21.660Z,10.70
2019-04-27T18:06:55.532Z,10.76
2019-04-27T18:09:29.035Z,10.80
2019-04-27T18:12:01.458Z,10.80
2019-04-27T18:14:39.472Z,10.63
2019-04-27T18:17:11.828Z,10.56
2019-04-27T18:19:44.273Z,10.55
2019-04-27T18:22:15.594Z,10.52
2019-04-27T18:24:47.820Z,10.43
2019-04-27T18:27:20.091Z,10.27
2019-04-27T18:29:52.370Z,10.18
2019-04-27T18:32:27.690Z,10.03
2019-04-27T18:35:00.306Z,9.92
2019-04-27T18:37:32.914Z,9.84
2019-04-27T18:40:05.174Z,9.80
2019-04-27T18:42:38.528Z,9.82
2019-04-27T18:45:11.068Z,9.82
2019-04-27T18:47:43.386Z,9.84
2019-04-27T18:50:15.733Z,9.88
2019-04-27T18:52:50.212Z,9.94
2019-04-27T18:55:22.302Z,9.98
2019-04-27T18:57:54.655Z,9.97
2019-04-27T19:00:27.691Z,9.98
2019-04-27T19:03:01.302Z,9.95
2019-04-27T19:05:40.088Z,9.91
2019-04-27T19:08:07.578Z,9.94
2019-04-27T19:10:39.787Z,10.02
2019-04-27T19:13:13.113Z,10.03
2019-04-27T19:15:45.626Z,10.08
2019-04-27T19:18:18.858Z,10.10
2019-04-27T19:20:51.223Z,10.14
2019-04-27T19:23:23.565Z,10.15
2019-04-27T19:25:55.787Z,10.18
2019-04-27T19:28:30.637Z,10.19
2019-04-27T19:31:02.327Z,10.20
2019-04-27T19:33:34.794Z,10.24
2019-04-27T19:36:08.746Z,10.28
2019-04-27T19:38:41.050Z,10.26
2019-04-27T19:41:13.291Z,10.27
2019-04-27T19:43:45.625Z,10.22
2019-04-27T19:46:19.824Z,10.19
2019-04-27T19:48:51.925Z,10.22
2019-04-27T19:51:24.443Z,10.21
2019-04-27T19:53:58.184Z,10.21
2019-04-27T19:56:30.705Z,10.20
2019-04-27T19:59:03.019Z,10.09
2019-04-27T20:01:35.235Z,10.00
2019-04-27T20:04:08.604Z,9.97
2019-04-27T20:06:41.156Z,10.03
2019-04-27T20:09:13.467Z,10.11
2019-04-27T20:11:46.114Z,10.08
2019-04-27T20:14:18.398Z,9.98
2019-04-27T20:16:53.319Z,9.95
2019-04-27T20:19:25.683Z,9.98
2019-04-27T20:21:57.919Z,9.93
2019-04-27T20:24:31.405Z,9.58
2019-04-27T20:27:04.432Z,9.32
2019-04-27T20:29:36.805Z,9.19
2019-04-27T20:32:11.332Z,9.05
2019-04-27T20:34:43.284Z,8.95
2019-04-27T20:37:15.384Z,8.90
2019-04-27T20:39:48.674Z,8.94
2019-04-27T20:42:21.336Z,8.95
2019-04-27T20:44:53.650Z,8.94
2019-04-27T20:47:27.935Z,9.03
2019-04-27T20:50:00.215Z,9.07
2019-04-27T20:52:32.406Z,9.09
2019-04-27T20:55:04.621Z,9.11
2019-04-27T20:57:36.902Z,9.11
2019-04-27T21:00:09.184Z,9.07
2019-04-27T21:02:43.129Z,9.07
2019-04-27T21:05:15.344Z,9.04
2019-04-27T21:07:47.638Z,9.04
2019-04-27T21:10:20.146Z,9.04
2019-04-27T21:12:52.386Z,9.07
2019-04-27T21:15:24.597Z,9.09
2019-04-27T21:17:56.850Z,9.12
2019-04-27T21:20:30.831Z,9.21
2019-04-27T21:23:03.076Z,9.26
2019-04-27T21:25:35.295Z,9.32
2019-04-27T21:28:16.466Z,9.34
2019-04-27T21:30:41.444Z,9.28
2019-04-27T21:33:13.692Z,9.28
2019-04-27T21:35:45.945Z,9.27
2019-04-27T21:38:18.417Z,9.31
2019-04-27T21:40:50.662Z,9.35
2019-04-27T21:43:22.860Z,9.40
2019-04-27T21:45:55.101Z,9.42
2019-04-27T21:48:27.312Z,9.44
2019-04-27T21:51:01.069Z,9.43
2019-04-27T21:53:33.732Z,9.41
2019-04-27T21:56:05.838Z,9.40
2019-04-27T21:58:38.075Z,9.38
2019-04-27T22:01:11.587Z,9.29
2019-04-27T22:03:45.837Z,9.25
2019-04-27T22:06:18.170Z,9.32
2019-04-27T22:08:51.180Z,9.40
2019-04-27T22:11:23.547Z,9.49
2019-04-27T22:13:55.899Z,9.52
2019-04-27T22:16:28.313Z,9.38
2019-04-27T22:19:01.929Z,9.17
2019-04-27T22:21:34.430Z,9.03
2019-04-27T22:24:06.727Z,8.88
2019-04-27T22:26:39.314Z,8.79
2019-04-27T22:29:12.052Z,8.77
2019-04-27T22:31:44.635Z,8.72
2019-04-27T22:34:16.893Z,8.76
2019-04-27T22:36:49.247Z,8.79
2019-04-27T22:39:21.465Z,8.84
2019-04-27T22:41:53.705Z,8.89
2019-04-27T22:44:25.938Z,8.93
2019-04-27T22:46:58.212Z,8.97
2019-04-27T22:49:31.290Z,8.99
2019-04-27T22:52:03.666Z,9.01
2019-04-27T22:54:35.912Z,9.03
2019-04-27T22:57:08.157Z,8.99
2019-04-27T22:59:41.429Z,8.82
2019-04-27T23:02:13.727Z,8.67
2019-04-27T23:04:45.965Z,8.68
2019-04-27T23:07:18.176Z,8.75
2019-04-27T23:09:51.649Z,8.78
2019-04-27T23:12:24.061Z,8.73
2019-04-27T23:14:56.364Z,8.70
2019-04-27T23:17:28.604Z,8.59
2019-04-27T23:20:01.322Z,8.56
2019-04-27T23:22:33.934Z,8.45
2019-04-27T23:25:06.211Z,8.32
2019-04-27T23:27:38.449Z,8.20
2019-04-27T23:30:11.409Z,8.11
2019-04-27T23:32:43.768Z,8.01
2019-04-27T23:35:16.087Z,7.95
2019-04-27T23:37:50.759Z,7.90
2019-04-27T23:40:23.470Z,7.84
2019-04-27T23:42:55.674Z,7.81
2019-04-27T23:45:28.216Z,7.78
2019-04-27T23:48:00.435Z,7.75
2019-04-27T23:50:32.666Z,7.78
2019-04-27T23:53:04.876Z,7.79
2019-04-27T23:55:37.118Z,7.75
2019-04-27T23:58:09.477Z,7.74
